sensor_id;sensor_type;location;lat;lon;timestamp;temperature;humidity
15698;DHT22;7949;48.726;9.102;2022-08-21T00:01:20;15.30;99.90
15698;DHT22;7949;48.726;9.102;2022-08-21T00:03:47;15.30;99.90
15698;DHT22;7949;48.726;9.102;2022-08-21T00:06:16;15.30;99.90
15698;DHT22;7949;48.726;9.102;2022-08-21T00:08:43;15.20;99.90
15698;DHT22;7949;48.726;9.102;2022-08-21T00:11:10;15.20;99.90
15698;DHT22;7949;48.726;9.102;2022-08-21T00:13:37;15.20;99.90
15698;DHT22;7949;48.726;9.102;2022-08-21T00:16:04;15.10;99.90
15698;DHT22;7949;48.726;9.102;2022-08-21T00:18:31;15.10;99.90
15698;DHT22;7949;48.726;9.102;2022-08-21T00:20:59;15.10;99.90
15698;DHT22;7949;48.726;9.102;2022-08-21T00:23:27;15.10;99.90
15698;DHT22;7949;48.726;9.102;2022-08-21T00:25:54;15.00;99.90
15698;DHT22;7949;48.726;9.102;2022-08-21T00:28:21;15.00;99.90
15698;DHT22;7949;48.726;9.102;2022-08-21T00:30:48;15.00;99.90
15698;DHT22;7949;48.726;9.102;2022-08-21T00:33:16;15.00;99.90
15698;DHT22;7949;48.726;9.102;2022-08-21T00:35:43;15.00;99.90
15698;DHT22;7949;48.726;9.102;2022-08-21T00:38:11;15.00;99.90
15698;DHT22;7949;48.726;9.102;2022-08-21T00:40:41;15.00;99.90
15698;DHT22;7949;48.726;9.102;2022-08-21T00:43:11;14.90;99.90
15698;DHT22;7949;48.726;9.102;2022-08-21T00:45:38;14.90;99.90
15698;DHT22;7949;48.726;9.102;2022-08-21T00:48:06;14.80;99.90
15698;DHT22;7949;48.726;9.102;2022-08-21T00:50:35;14.80;99.90
15698;DHT22;7949;48.726;9.102;2022-08-21T00:53:06;14.80;99.90
15698;DHT22;7949;48.726;9.102;2022-08-21T00:55:34;14.80;99.90
15698;DHT22;7949;48.726;9.102;2022-08-21T00:58:06;14.70;99.90
15698;DHT22;7949;48.726;9.102;2022-08-21T01:00:36;14.70;99.90
15698;DHT22;7949;48.726;9.102;2022-08-21T01:03:07;14.70;99.90
15698;DHT22;7949;48.726;9.102;2022-08-21T01:05:35;14.60;99.90
15698;DHT22;7949;48.726;9.102;2022-08-21T01:08:03;14.60;99.90
15698;DHT22;7949;48.726;9.102;2022-08-21T01:10:30;14.60;99.90
15698;DHT22;7949;48.726;9.102;2022-08-21T01:12:57;14.60;99.90
15698;DHT22;7949;48.726;9.102;2022-08-21T01:15:29;14.60;99.90
15698;DHT22;7949;48.726;9.102;2022-08-21T01:17:57;14.60;99.90
15698;DHT22;7949;48.726;9.102;2022-08-21T01:20:24;14.60;99.90
15698;DHT22;7949;48.726;9.102;2022-08-21T01:22:52;14.50;99.90
15698;DHT22;7949;48.726;9.102;2022-08-21T01:25:19;14.50;99.90
15698;DHT22;7949;48.726;9.102;2022-08-21T01:27:46;14.50;99.90
15698;DHT22;7949;48.726;9.102;2022-08-21T01:30:15;14.40;99.90
15698;DHT22;7949;48.726;9.102;2022-08-21T01:32:44;14.40;99.90
15698;DHT22;7949;48.726;9.102;2022-08-21T01:35:11;14.40;99.90
15698;DHT22;7949;48.726;9.102;2022-08-21T01:37:39;14.30;99.90
15698;DHT22;7949;48.726;9.102;2022-08-21T01:40:09;14.30;99.90
15698;DHT22;7949;48.726;9.102;2022-08-21T01:42:37;14.20;99.90
15698;DHT22;7949;48.726;9.102;2022-08-21T01:45:05;14.20;99.90
15698;DHT22;7949;48.726;9.102;2022-08-21T01:47:32;14.20;99.90
15698;DHT22;7949;48.726;9.102;2022-08-21T01:49:59;14.20;99.90
15698;DHT22;7949;48.726;9.102;2022-08-21T01:52:26;14.20;99.90
15698;DHT22;7949;48.726;9.102;2022-08-21T01:54:55;14.20;99.90
15698;DHT22;7949;48.726;9.102;2022-08-21T01:57:23;14.20;99.90
15698;DHT22;7949;48.726;9.102;2022-08-21T01:59:50;14.20;99.90
15698;DHT22;7949;48.726;9.102;2022-08-21T02:02:17;14.20;99.90
15698;DHT22;7949;48.726;9.102;2022-08-21T02:04:44;14.10;99.90
15698;DHT22;7949;48.726;9.102;2022-08-21T02:07:11;14.10;99.90
15698;DHT22;7949;48.726;9.102;2022-08-21T02:09:38;14.10;99.90
15698;DHT22;7949;48.726;9.102;2022-08-21T02:12:07;14.10;99.90
15698;DHT22;7949;48.726;9.102;2022-08-21T02:14:36;14.00;99.90
15698;DHT22;7949;48.726;9.102;2022-08-21T02:17:03;14.00;99.90
15698;DHT22;7949;48.726;9.102;2022-08-21T02:19:30;13.90;99.90
15698;DHT22;7949;48.726;9.102;2022-08-21T02:21:56;13.90;99.90
15698;DHT22;7949;48.726;9.102;2022-08-21T02:24:23;13.80;99.90
15698;DHT22;7949;48.726;9.102;2022-08-21T02:26:50;13.80;99.90
15698;DHT22;7949;48.726;9.102;2022-08-21T02:29:17;13.80;99.90
15698;DHT22;7949;48.726;9.102;2022-08-21T02:31:45;13.80;99.90
15698;DHT22;7949;48.726;9.102;2022-08-21T02:34:12;13.70;99.90
15698;DHT22;7949;48.726;9.102;2022-08-21T02:36:39;13.70;99.90
15698;DHT22;7949;48.726;9.102;2022-08-21T02:39:05;13.70;99.90
15698;DHT22;7949;48.726;9.102;2022-08-21T02:41:32;13.70;99.90
15698;DHT22;7949;48.726;9.102;2022-08-21T02:43:59;13.60;99.90
15698;DHT22;7949;48.726;9.102;2022-08-21T02:46:26;13.70;99.90
15698;DHT22;7949;48.726;9.102;2022-08-21T02:48:55;13.60;99.90
15698;DHT22;7949;48.726;9.102;2022-08-21T02:51:22;13.60;99.90
15698;DHT22;7949;48.726;9.102;2022-08-21T02:53:49;13.60;99.90
15698;DHT22;7949;48.726;9.102;2022-08-21T02:56:19;13.50;99.90
15698;DHT22;7949;48.726;9.102;2022-08-21T02:58:48;13.50;99.90
15698;DHT22;7949;48.726;9.102;2022-08-21T03:01:17;13.40;99.90
15698;DHT22;7949;48.726;9.102;2022-08-21T03:03:46;13.40;99.90
15698;DHT22;7949;48.726;9.102;2022-08-21T03:06:17;13.40;99.90
15698;DHT22;7949;48.726;9.102;2022-08-21T03:08:45;13.30;99.90
15698;DHT22;7949;48.726;9.102;2022-08-21T03:11:12;13.30;99.90
15698;DHT22;7949;48.726;9.102;2022-08-21T03:13:39;13.20;99.90
15698;DHT22;7949;48.726;9.102;2022-08-21T03:16:06;13.20;99.90
15698;DHT22;7949;48.726;9.102;2022-08-21T03:18:34;13.10;99.90
15698;DHT22;7949;48.726;9.102;2022-08-21T03:21:01;13.10;99.90
15698;DHT22;7949;48.726;9.102;2022-08-21T03:23:29;13.00;99.90
15698;DHT22;7949;48.726;9.102;2022-08-21T03:25:57;12.90;99.90
15698;DHT22;7949;48.726;9.102;2022-08-21T03:28:24;12.90;99.90
15698;DHT22;7949;48.726;9.102;2022-08-21T03:30:52;12.80;99.90
15698;DHT22;7949;48.726;9.102;2022-08-21T03:33:20;12.70;99.90
15698;DHT22;7949;48.726;9.102;2022-08-21T03:35:52;12.70;99.90
15698;DHT22;7949;48.726;9.102;2022-08-21T03:38:22;12.60;99.90
15698;DHT22;7949;48.726;9.102;2022-08-21T03:40:50;12.50;99.90
15698;DHT22;7949;48.726;9.102;2022-08-21T03:43:17;12.50;99.90
15698;DHT22;7949;48.726;9.102;2022-08-21T03:45:45;12.50;99.90
15698;DHT22;7949;48.726;9.102;2022-08-21T03:48:12;12.40;99.90
15698;DHT22;7949;48.726;9.102;2022-08-21T03:50:42;12.40;99.90
15698;DHT22;7949;48.726;9.102;2022-08-21T03:53:11;12.30;99.90
15698;DHT22;7949;48.726;9.102;2022-08-21T03:55:38;12.30;99.90
15698;DHT22;7949;48.726;9.102;2022-08-21T03:58:07;12.20;99.90
15698;DHT22;7949;48.726;9.102;2022-08-21T04:00:34;12.20;99.90
15698;DHT22;7949;48.726;9.102;2022-08-21T04:03:03;12.20;99.90
15698;DHT22;7949;48.726;9.102;2022-08-21T04:05:30;12.10;99.90
15698;DHT22;7949;48.726;9.102;2022-08-21T04:07:59;12.10;99.90
15698;DHT22;7949;48.726;9.102;2022-08-21T04:10:27;12.00;99.90
15698;DHT22;7949;48.726;9.102;2022-08-21T04:12:55;12.00;99.90
15698;DHT22;7949;48.726;9.102;2022-08-21T04:15:25;11.90;99.90
15698;DHT22;7949;48.726;9.102;2022-08-21T04:17:53;11.90;99.90
15698;DHT22;7949;48.726;9.102;2022-08-21T04:20:21;11.90;99.90
15698;DHT22;7949;48.726;9.102;2022-08-21T04:22:48;11.90;99.90
15698;DHT22;7949;48.726;9.102;2022-08-21T04:25:16;11.80;99.90
15698;DHT22;7949;48.726;9.102;2022-08-21T04:27:44;11.80;99.90
15698;DHT22;7949;48.726;9.102;2022-08-21T04:30:12;11.80;99.90
15698;DHT22;7949;48.726;9.102;2022-08-21T04:32:44;11.70;99.90
15698;DHT22;7949;48.726;9.102;2022-08-21T04:35:14;11.70;99.90
15698;DHT22;7949;48.726;9.102;2022-08-21T04:37:41;11.70;99.90
15698;DHT22;7949;48.726;9.102;2022-08-21T04:40:09;11.60;99.90
15698;DHT22;7949;48.726;9.102;2022-08-21T04:42:42;11.60;99.90
15698;DHT22;7949;48.726;9.102;2022-08-21T04:45:16;11.60;99.90
15698;DHT22;7949;48.726;9.102;2022-08-21T04:47:48;11.60;99.90
15698;DHT22;7949;48.726;9.102;2022-08-21T04:50:15;11.60;99.90
15698;DHT22;7949;48.726;9.102;2022-08-21T04:52:43;11.60;99.90
15698;DHT22;7949;48.726;9.102;2022-08-21T04:55:10;11.70;99.90
15698;DHT22;7949;48.726;9.102;2022-08-21T04:57:38;11.70;99.90
15698;DHT22;7949;48.726;9.102;2022-08-21T05:00:07;11.70;99.90
15698;DHT22;7949;48.726;9.102;2022-08-21T05:02:37;11.80;99.90
15698;DHT22;7949;48.726;9.102;2022-08-21T05:05:07;11.80;99.90
15698;DHT22;7949;48.726;9.102;2022-08-21T05:07:34;11.80;99.90
15698;DHT22;7949;48.726;9.102;2022-08-21T05:10:02;11.90;99.90
15698;DHT22;7949;48.726;9.102;2022-08-21T05:12:31;11.90;99.90
15698;DHT22;7949;48.726;9.102;2022-08-21T05:14:58;12.00;99.90
15698;DHT22;7949;48.726;9.102;2022-08-21T05:17:26;12.00;99.90
15698;DHT22;7949;48.726;9.102;2022-08-21T05:19:52;12.10;99.90
15698;DHT22;7949;48.726;9.102;2022-08-21T05:22:22;12.20;99.90
15698;DHT22;7949;48.726;9.102;2022-08-21T17:52:18;25.10;76.40
15698;DHT22;7949;48.726;9.102;2022-08-21T17:54:45;24.90;76.70
15698;DHT22;7949;48.726;9.102;2022-08-21T17:57:17;24.60;78.30
15698;DHT22;7949;48.726;9.102;2022-08-21T17:59:44;24.40;78.10
15698;DHT22;7949;48.726;9.102;2022-08-21T18:02:12;24.20;77.90
15698;DHT22;7949;48.726;9.102;2022-08-21T18:04:40;24.00;79.70
15698;DHT22;7949;48.726;9.102;2022-08-21T18:07:07;23.80;80.70
15698;DHT22;7949;48.726;9.102;2022-08-21T18:09:36;23.60;80.60
15698;DHT22;7949;48.726;9.102;2022-08-21T18:12:03;23.40;81.00
15698;DHT22;7949;48.726;9.102;2022-08-21T18:14:34;23.30;81.30
15698;DHT22;7949;48.726;9.102;2022-08-21T18:17:05;23.10;82.70
15698;DHT22;7949;48.726;9.102;2022-08-21T18:19:33;22.90;83.00
15698;DHT22;7949;48.726;9.102;2022-08-21T18:22:01;22.80;84.10
15698;DHT22;7949;48.726;9.102;2022-08-21T18:24:31;22.60;83.80
15698;DHT22;7949;48.726;9.102;2022-08-21T18:26:59;22.40;86.20
15698;DHT22;7949;48.726;9.102;2022-08-21T18:29:26;22.30;86.40
15698;DHT22;7949;48.726;9.102;2022-08-21T18:31:54;22.10;87.50
15698;DHT22;7949;48.726;9.102;2022-08-21T18:34:24;21.90;87.60
15698;DHT22;7949;48.726;9.102;2022-08-21T18:36:52;21.70;89.20
15698;DHT22;7949;48.726;9.102;2022-08-21T18:39:20;21.50;90.00
15698;DHT22;7949;48.726;9.102;2022-08-21T18:41:48;21.30;90.10
15698;DHT22;7949;48.726;9.102;2022-08-21T18:44:19;21.10;90.50
15698;DHT22;7949;48.726;9.102;2022-08-21T18:46:51;21.00;91.60
15698;DHT22;7949;48.726;9.102;2022-08-21T18:49:19;20.80;92.20
15698;DHT22;7949;48.726;9.102;2022-08-21T18:51:47;20.60;92.40
15698;DHT22;7949;48.726;9.102;2022-08-21T18:54:14;20.50;93.00
15698;DHT22;7949;48.726;9.102;2022-08-21T18:56:41;20.30;93.70
15698;DHT22;7949;48.726;9.102;2022-08-21T18:59:09;20.20;94.30
15698;DHT22;7949;48.726;9.102;2022-08-21T19:01:38;20.10;94.90
15698;DHT22;7949;48.726;9.102;2022-08-21T19:04:06;19.90;95.20
15698;DHT22;7949;48.726;9.102;2022-08-21T19:06:33;19.80;95.70
15698;DHT22;7949;48.726;9.102;2022-08-21T19:09:00;19.70;96.00
15698;DHT22;7949;48.726;9.102;2022-08-21T19:11:28;19.60;96.50
15698;DHT22;7949;48.726;9.102;2022-08-21T19:13:55;19.50;97.20
15698;DHT22;7949;48.726;9.102;2022-08-21T19:16:23;19.30;97.10
15698;DHT22;7949;48.726;9.102;2022-08-21T19:18:51;19.20;97.80
15698;DHT22;7949;48.726;9.102;2022-08-21T19:21:18;19.10;98.20
15698;DHT22;7949;48.726;9.102;2022-08-21T19:23:46;18.90;98.70
15698;DHT22;7949;48.726;9.102;2022-08-21T19:26:14;18.80;99.30
15698;DHT22;7949;48.726;9.102;2022-08-21T19:28:44;18.70;99.80
15698;DHT22;7949;48.726;9.102;2022-08-21T19:31:14;18.60;99.90
15698;DHT22;7949;48.726;9.102;2022-08-21T19:33:45;18.50;99.90
15698;DHT22;7949;48.726;9.102;2022-08-21T19:36:13;18.40;99.90
15698;DHT22;7949;48.726;9.102;2022-08-21T19:38:40;18.30;99.90
15698;DHT22;7949;48.726;9.102;2022-08-21T19:41:11;18.30;99.90
15698;DHT22;7949;48.726;9.102;2022-08-21T19:43:42;18.20;99.90
15698;DHT22;7949;48.726;9.102;2022-08-21T19:46:10;18.10;99.90
15698;DHT22;7949;48.726;9.102;2022-08-21T19:48:38;18.00;99.90
15698;DHT22;7949;48.726;9.102;2022-08-21T19:51:05;18.00;99.90
15698;DHT22;7949;48.726;9.102;2022-08-21T19:53:33;17.90;99.90
15698;DHT22;7949;48.726;9.102;2022-08-21T19:56:00;17.80;99.90
15698;DHT22;7949;48.726;9.102;2022-08-21T19:58:32;17.70;99.90
15698;DHT22;7949;48.726;9.102;2022-08-21T20:01:00;17.60;99.90
15698;DHT22;7949;48.726;9.102;2022-08-21T20:03:27;17.60;99.90
15698;DHT22;7949;48.726;9.102;2022-08-21T20:05:53;17.50;99.90
15698;DHT22;7949;48.726;9.102;2022-08-21T20:08:21;17.50;99.90
15698;DHT22;7949;48.726;9.102;2022-08-21T20:10:50;17.50;99.90
15698;DHT22;7949;48.726;9.102;2022-08-21T20:13:18;17.40;99.90
15698;DHT22;7949;48.726;9.102;2022-08-21T20:15:46;17.40;99.90
15698;DHT22;7949;48.726;9.102;2022-08-21T20:18:13;17.30;99.90
15698;DHT22;7949;48.726;9.102;2022-08-21T20:20:40;17.20;99.90
15698;DHT22;7949;48.726;9.102;2022-08-21T20:23:08;17.10;99.90
15698;DHT22;7949;48.726;9.102;2022-08-21T20:25:35;17.00;99.90
15698;DHT22;7949;48.726;9.102;2022-08-21T20:28:05;17.00;99.90
15698;DHT22;7949;48.726;9.102;2022-08-21T20:30:32;16.90;99.90
15698;DHT22;7949;48.726;9.102;2022-08-21T20:32:59;16.80;99.90
15698;DHT22;7949;48.726;9.102;2022-08-21T20:35:26;16.80;99.90
15698;DHT22;7949;48.726;9.102;2022-08-21T20:37:52;16.80;99.90
15698;DHT22;7949;48.726;9.102;2022-08-21T20:40:19;16.80;99.90
15698;DHT22;7949;48.726;9.102;2022-08-21T20:42:49;16.70;99.90
15698;DHT22;7949;48.726;9.102;2022-08-21T20:45:20;16.60;99.90
15698;DHT22;7949;48.726;9.102;2022-08-21T20:47:48;16.60;99.90
15698;DHT22;7949;48.726;9.102;2022-08-21T20:50:18;16.60;99.90
15698;DHT22;7949;48.726;9.102;2022-08-21T20:52:49;16.50;99.90
15698;DHT22;7949;48.726;9.102;2022-08-21T20:55:19;16.40;99.90
15698;DHT22;7949;48.726;9.102;2022-08-21T20:57:51;16.30;99.90
15698;DHT22;7949;48.726;9.102;2022-08-21T21:00:23;16.20;99.90
15698;DHT22;7949;48.726;9.102;2022-08-21T21:02:56;16.20;99.90
15698;DHT22;7949;48.726;9.102;2022-08-21T21:05:28;16.10;99.90
15698;DHT22;7949;48.726;9.102;2022-08-21T21:07:59;16.00;99.90
15698;DHT22;7949;48.726;9.102;2022-08-21T21:10:36;16.00;99.90
15698;DHT22;7949;48.726;9.102;2022-08-21T21:13:09;15.80;99.90
15698;DHT22;7949;48.726;9.102;2022-08-21T21:15:43;15.80;99.90
15698;DHT22;7949;48.726;9.102;2022-08-21T21:18:15;15.70;99.90
15698;DHT22;7949;48.726;9.102;2022-08-21T21:20:48;15.70;99.90
15698;DHT22;7949;48.726;9.102;2022-08-21T21:23:23;15.70;99.90
15698;DHT22;7949;48.726;9.102;2022-08-21T21:25:57;15.60;99.90
15698;DHT22;7949;48.726;9.102;2022-08-21T21:28:29;15.50;99.90
15698;DHT22;7949;48.726;9.102;2022-08-21T21:31:01;15.40;99.90
15698;DHT22;7949;48.726;9.102;2022-08-21T21:33:28;15.40;99.90
15698;DHT22;7949;48.726;9.102;2022-08-21T21:36:02;15.30;99.90
15698;DHT22;7949;48.726;9.102;2022-08-21T21:38:39;15.20;99.90
15698;DHT22;7949;48.726;9.102;2022-08-21T21:41:12;15.20;99.90
15698;DHT22;7949;48.726;9.102;2022-08-21T21:43:55;15.10;99.90
15698;DHT22;7949;48.726;9.102;2022-08-21T21:46:35;15.00;99.90
15698;DHT22;7949;48.726;9.102;2022-08-21T21:49:27;15.00;99.90
15698;DHT22;7949;48.726;9.102;2022-08-21T21:52:04;15.00;99.90
15698;DHT22;7949;48.726;9.102;2022-08-21T21:54:49;14.90;99.90
15698;DHT22;7949;48.726;9.102;2022-08-21T21:57:36;14.90;99.90
15698;DHT22;7949;48.726;9.102;2022-08-21T22:00:09;14.90;99.90
15698;DHT22;7949;48.726;9.102;2022-08-21T22:02:45;14.80;99.90
15698;DHT22;7949;48.726;9.102;2022-08-21T22:05:24;14.80;99.90
15698;DHT22;7949;48.726;9.102;2022-08-21T22:07:58;14.70;99.90
15698;DHT22;7949;48.726;9.102;2022-08-21T22:10:31;14.70;99.90
15698;DHT22;7949;48.726;9.102;2022-08-21T22:13:04;14.60;99.90
15698;DHT22;7949;48.726;9.102;2022-08-21T22:15:32;14.60;99.90
15698;DHT22;7949;48.726;9.102;2022-08-21T22:18:04;14.60;99.90
15698;DHT22;7949;48.726;9.102;2022-08-21T22:20:39;14.60;99.90
15698;DHT22;7949;48.726;9.102;2022-08-21T22:23:11;14.50;99.90
15698;DHT22;7949;48.726;9.102;2022-08-21T22:25:42;14.50;99.90
15698;DHT22;7949;48.726;9.102;2022-08-21T22:28:13;14.50;99.90
15698;DHT22;7949;48.726;9.102;2022-08-21T22:30:44;14.40;99.90
15698;DHT22;7949;48.726;9.102;2022-08-21T22:33:15;14.40;99.90
15698;DHT22;7949;48.726;9.102;2022-08-21T22:35:43;14.40;99.90
15698;DHT22;7949;48.726;9.102;2022-08-21T22:38:15;14.30;99.90
15698;DHT22;7949;48.726;9.102;2022-08-21T22:40:43;14.30;99.90
15698;DHT22;7949;48.726;9.102;2022-08-21T22:43:15;14.30;99.90
15698;DHT22;7949;48.726;9.102;2022-08-21T22:45:54;14.30;99.90
15698;DHT22;7949;48.726;9.102;2022-08-21T22:48:27;14.20;99.90
15698;DHT22;7949;48.726;9.102;2022-08-21T22:50:56;14.30;99.90
15698;DHT22;7949;48.726;9.102;2022-08-21T22:53:27;14.20;99.90
15698;DHT22;7949;48.726;9.102;2022-08-21T22:55:56;14.20;99.90
15698;DHT22;7949;48.726;9.102;2022-08-21T22:58:26;14.20;99.90
15698;DHT22;7949;48.726;9.102;2022-08-21T23:00:56;14.10;99.90
15698;DHT22;7949;48.726;9.102;2022-08-21T23:03:30;14.10;99.90
15698;DHT22;7949;48.726;9.102;2022-08-21T23:05:59;14.10;99.90
15698;DHT22;7949;48.726;9.102;2022-08-21T23:08:31;14.10;99.90
15698;DHT22;7949;48.726;9.102;2022-08-21T23:11:01;14.10;99.90
15698;DHT22;7949;48.726;9.102;2022-08-21T23:13:38;14.00;99.90
15698;DHT22;7949;48.726;9.102;2022-08-21T23:16:12;14.00;99.90
15698;DHT22;7949;48.726;9.102;2022-08-21T23:19:00;14.00;99.90
15698;DHT22;7949;48.726;9.102;2022-08-21T23:21:32;14.00;99.90
15698;DHT22;7949;48.726;9.102;2022-08-21T23:24:15;14.00;99.90
15698;DHT22;7949;48.726;9.102;2022-08-21T23:26:53;14.00;99.90
15698;DHT22;7949;48.726;9.102;2022-08-21T23:29:27;13.90;99.90
15698;DHT22;7949;48.726;9.102;2022-08-21T23:32:02;13.90;99.90
15698;DHT22;7949;48.726;9.102;2022-08-21T23:34:39;13.90;99.90
15698;DHT22;7949;48.726;9.102;2022-08-21T23:37:18;13.90;99.90
15698;DHT22;7949;48.726;9.102;2022-08-21T23:40:14;13.80;99.90
15698;DHT22;7949;48.726;9.102;2022-08-21T23:42:54;13.80;99.90
15698;DHT22;7949;48.726;9.102;2022-08-21T23:45:32;13.80;99.90
15698;DHT22;7949;48.726;9.102;2022-08-21T23:48:09;13.80;99.90
15698;DHT22;7949;48.726;9.102;2022-08-21T23:50:47;13.70;99.90
15698;DHT22;7949;48.726;9.102;2022-08-21T23:53:24;13.70;99.90
15698;DHT22;7949;48.726;9.102;2022-08-21T23:56:04;13.60;99.90
15698;DHT22;7949;48.726;9.102;2022-08-21T23:58:40;13.60;99.90
